createdAt,value
2022-11-06T00:00:31.128Z,1.58
2022-11-06T00:02:33.197Z,1.40
2022-11-06T00:04:35.258Z,1.02
2022-11-06T00:06:46.546Z,0.90
2022-11-06T00:08:48.432Z,1.00
2022-11-06T00:10:50.298Z,0.85
2022-11-06T00:12:52.607Z,0.82
2022-11-06T00:14:54.481Z,0.63
2022-11-06T00:16:56.509Z,0.68
2022-11-06T00:19:02.445Z,0.80
2022-11-06T00:21:16.121Z,0.88
2022-11-06T00:23:17.948Z,0.70
2022-11-06T00:25:20.908Z,0.47
2022-11-06T00:27:22.796Z,0.70
2022-11-06T00:29:28.029Z,0.90
2022-11-06T00:31:33.888Z,0.70
2022-11-06T00:33:36.205Z,0.60
2022-11-06T00:35:39.594Z,0.90
2022-11-06T00:37:41.471Z,1.20
2022-11-06T00:39:43.397Z,1.00
2022-11-06T00:41:45.209Z,1.00
2022-11-06T00:43:50.587Z,2.20
2022-11-06T00:45:52.587Z,1.88
2022-11-06T00:47:55.062Z,1.48
2022-11-06T00:49:56.886Z,1.60
2022-11-06T00:51:58.929Z,0.93
2022-11-06T00:54:02.969Z,1.45
2022-11-06T00:56:07.456Z,0.73
2022-11-06T00:58:09.527Z,0.75
2022-11-06T01:00:13.466Z,0.60
2022-11-06T01:02:16.584Z,0.40
2022-11-06T01:04:21.448Z,0.52
2022-11-06T01:06:25.527Z,0.50
2022-11-06T01:08:27.516Z,0.30
2022-11-06T01:10:29.558Z,0.40
2022-11-06T01:12:33.458Z,0.30
2022-11-06T01:14:38.797Z,0.30
2022-11-06T01:16:41.428Z,0.20
2022-11-06T01:18:45.267Z,0.40
2022-11-06T01:20:47.098Z,0.30
2022-11-06T01:22:49.564Z,0.20
2022-11-06T01:24:52.298Z,0.28
2022-11-06T01:29:19.548Z,0.30
2022-11-06T01:31:26.334Z,0.22
2022-11-06T01:33:29.513Z,0.20
2022-11-06T01:35:31.629Z,0.20
2022-11-06T01:37:33.594Z,0.30
2022-11-06T01:39:35.679Z,0.40
2022-11-06T01:41:41.261Z,0.30
2022-11-06T01:43:49.190Z,0.20
2022-11-06T01:45:54.782Z,0.38
2022-11-06T01:47:57.800Z,0.20
2022-11-06T01:50:06.962Z,0.30
2022-11-06T01:52:11.836Z,0.30
2022-11-06T01:54:15.496Z,0.20
2022-11-06T01:56:19.616Z,0.30
2022-11-06T01:58:25.149Z,0.30
2022-11-06T02:00:28.229Z,0.20
2022-11-06T02:02:30.307Z,0.30
2022-11-06T02:04:37.314Z,0.30
2022-11-06T02:06:39.996Z,0.30
2022-11-06T02:08:42.369Z,0.30
2022-11-06T02:10:45.676Z,0.45
2022-11-06T02:12:54.101Z,0.30
2022-11-06T02:15:07.154Z,0.45
2022-11-06T02:17:13.295Z,0.40
2022-11-06T02:19:35.442Z,0.40
2022-11-06T02:22:02.490Z,0.95
2022-11-06T02:24:24.751Z,0.38
2022-11-06T02:26:36.811Z,0.30
2022-11-06T02:28:50.661Z,0.30
2022-11-06T02:30:55.685Z,0.30
2022-11-06T02:33:01.920Z,0.40
2022-11-06T02:35:13.790Z,0.20
2022-11-06T02:37:21.043Z,0.28
2022-11-06T02:39:27.667Z,0.35
2022-11-06T02:41:37.950Z,0.30
2022-11-06T02:43:43.719Z,0.85
2022-11-06T02:45:53.342Z,0.20
2022-11-06T02:47:57.275Z,0.30
2022-11-06T02:50:05.600Z,0.30
2022-11-06T02:52:14.642Z,0.30
2022-11-06T02:54:20.796Z,0.40
2022-11-06T02:56:28.760Z,0.40
2022-11-06T02:58:48.782Z,0.30
2022-11-06T03:00:58.849Z,0.68
2022-11-06T03:03:06.603Z,0.40
2022-11-06T03:05:19.370Z,0.40
2022-11-06T03:07:31.242Z,0.38
2022-11-06T03:09:34.200Z,0.40
2022-11-06T03:11:40.690Z,0.40
2022-11-06T03:14:03.047Z,0.25
2022-11-06T03:16:14.310Z,0.30
2022-11-06T03:18:25.152Z,0.30
2022-11-06T03:20:40.274Z,0.30
2022-11-06T03:22:52.925Z,0.38
2022-11-06T03:25:11.458Z,0.28
2022-11-06T03:27:20.244Z,0.38
2022-11-06T03:29:27.231Z,0.32
2022-11-06T03:31:46.489Z,0.47
2022-11-06T03:33:55.546Z,0.40
2022-11-06T03:36:04.122Z,0.30
2022-11-06T03:38:20.768Z,0.30
2022-11-06T03:40:26.727Z,0.20
2022-11-06T03:42:30.614Z,0.40
2022-11-06T03:44:37.018Z,0.30
2022-11-06T03:46:44.226Z,0.28
2022-11-06T03:48:52.590Z,0.20
2022-11-06T03:51:00.926Z,0.50
2022-11-06T03:53:14.753Z,0.20
2022-11-06T03:55:20.106Z,0.13
2022-11-06T03:57:28.041Z,0.20
2022-11-06T03:59:41.991Z,0.17
2022-11-06T04:01:47.007Z,0.30
2022-11-06T04:03:57.183Z,0.30
2022-11-06T04:06:10.596Z,0.55
2022-11-06T04:08:27.123Z,0.20
2022-11-06T04:10:38.706Z,0.25
2022-11-06T04:13:03.178Z,0.20
2022-11-06T04:15:06.792Z,0.30
2022-11-06T04:17:13.213Z,0.20
2022-11-06T04:19:17.930Z,0.20
2022-11-06T04:21:43.671Z,0.40
2022-11-06T04:24:07.264Z,0.20
2022-11-06T04:26:36.196Z,0.30
2022-11-06T04:28:52.590Z,0.20
2022-11-06T04:31:02.765Z,0.10
2022-11-06T04:33:14.313Z,0.20
2022-11-06T04:35:33.858Z,0.10
2022-11-06T04:37:53.520Z,0.20
2022-11-06T04:40:07.858Z,0.20
2022-11-06T04:42:22.635Z,0.20
2022-11-06T04:44:33.241Z,0.20
2022-11-06T04:46:44.540Z,0.10
2022-11-06T04:48:48.206Z,0.13
2022-11-06T04:50:55.508Z,0.10
2022-11-06T04:52:59.755Z,0.50
2022-11-06T04:55:02.225Z,0.10
2022-11-06T04:57:04.706Z,0.20
2022-11-06T04:59:10.555Z,0.10
2022-11-06T05:01:13.817Z,0.10
2022-11-06T05:03:16.889Z,0.10
2022-11-06T05:05:18.870Z,0.10
2022-11-06T05:07:20.787Z,0.30
2022-11-06T05:09:23.332Z,0.10
2022-11-06T05:11:25.498Z,0.35
2022-11-06T05:13:27.666Z,0.20
2022-11-06T05:15:30.194Z,0.20
2022-11-06T05:17:36.345Z,0.30
2022-11-06T05:19:39.026Z,0.30
2022-11-06T05:21:50.682Z,0.20
2022-11-06T05:23:52.821Z,0.30
2022-11-06T05:25:55.098Z,0.63
2022-11-06T05:27:57.386Z,0.32
2022-11-06T05:29:59.702Z,0.30
2022-11-06T05:32:02.162Z,0.40
2022-11-06T05:34:05.205Z,0.40
2022-11-06T05:36:11.081Z,0.38
2022-11-06T05:38:13.836Z,0.40
2022-11-06T05:40:16.484Z,0.38
2022-11-06T05:42:19.203Z,0.68
2022-11-06T05:44:23.282Z,0.60
2022-11-06T05:46:47.175Z,0.40
2022-11-06T05:48:50.606Z,0.40
2022-11-06T05:50:57.569Z,0.30
2022-11-06T05:53:01.699Z,0.40
2022-11-06T05:55:08.828Z,0.45
2022-11-06T05:57:13.745Z,0.60
2022-11-06T05:59:17.786Z,0.40
2022-11-06T06:01:20.333Z,0.60
2022-11-06T06:03:23.653Z,0.50
2022-11-06T06:05:29.841Z,0.73
2022-11-06T06:07:33.662Z,0.90
2022-11-06T06:09:35.495Z,0.57
2022-11-06T06:11:38.380Z,0.50
2022-11-06T06:13:40.243Z,0.52
2022-11-06T06:15:44.435Z,0.80
2022-11-06T06:17:46.846Z,0.40
2022-11-06T06:19:48.939Z,0.57
2022-11-06T06:21:51.359Z,0.60
2022-11-06T06:23:54.018Z,0.43
2022-11-06T06:25:57.725Z,0.90
2022-11-06T06:28:00.119Z,0.90
2022-11-06T06:30:02.015Z,0.90
2022-11-06T06:32:05.275Z,1.25
2022-11-06T06:34:07.718Z,0.50
2022-11-06T06:36:10.599Z,0.95
2022-11-06T06:38:13.328Z,1.50
2022-11-06T06:40:15.590Z,1.98
2022-11-06T06:42:17.429Z,1.50
2022-11-06T06:44:19.873Z,1.05
2022-11-06T06:46:27.313Z,0.82
2022-11-06T06:48:30.390Z,0.98
2022-11-06T06:50:32.765Z,0.68
2022-11-06T06:52:34.726Z,0.60
2022-11-06T06:54:36.618Z,0.70
2022-11-06T06:56:39.538Z,0.77
2022-11-06T06:58:41.829Z,1.00
2022-11-06T07:00:44.009Z,1.10
2022-11-06T07:02:46.430Z,1.08
2022-11-06T07:04:48.378Z,1.50
2022-11-06T07:06:53.714Z,1.90
2022-11-06T07:08:59.190Z,1.70
2022-11-06T07:11:04.456Z,2.08
2022-11-06T07:13:07.465Z,1.45
2022-11-06T07:15:10.477Z,1.70
2022-11-06T07:17:13.644Z,1.50
2022-11-06T07:19:15.563Z,1.80
2022-11-06T07:21:17.503Z,1.13
2022-11-06T07:23:23.413Z,1.23
2022-11-06T07:25:26.408Z,0.88
2022-11-06T07:27:29.817Z,0.90
2022-11-06T07:29:33.486Z,1.00
2022-11-06T07:31:38.301Z,1.20
2022-11-06T07:33:41.982Z,1.58
2022-11-06T07:35:48.474Z,0.98
2022-11-06T07:37:50.879Z,1.08
2022-11-06T07:39:55.962Z,0.80
2022-11-06T07:41:57.897Z,0.88
2022-11-06T07:44:00.780Z,1.17
2022-11-06T07:46:06.243Z,1.00
2022-11-06T07:48:19.468Z,0.80
2022-11-06T07:50:21.701Z,1.00
2022-11-06T07:52:24.625Z,1.23
2022-11-06T07:54:30.023Z,1.10
2022-11-06T07:56:33.994Z,1.48
2022-11-06T07:58:37.770Z,1.67
2022-11-06T08:00:40.562Z,1.85
2022-11-06T08:02:45.005Z,1.83
2022-11-06T08:04:47.528Z,1.20
2022-11-06T08:06:52.576Z,1.90
2022-11-06T08:08:58.887Z,1.80
2022-11-06T08:11:06.191Z,1.88
2022-11-06T08:13:08.829Z,2.17
2022-11-06T08:15:11.296Z,1.38
2022-11-06T08:17:15.404Z,1.48
2022-11-06T08:19:22.210Z,1.70
2022-11-06T08:21:24.385Z,1.08
2022-11-06T08:23:27.724Z,0.65
2022-11-06T08:25:30.787Z,0.70
2022-11-06T08:27:34.011Z,0.80
2022-11-06T08:29:41.642Z,0.30
2022-11-06T08:31:44.602Z,0.60
2022-11-06T08:33:48.234Z,0.20
2022-11-06T08:35:50.724Z,0.43
2022-11-06T08:37:53.993Z,0.30
2022-11-06T08:39:57.171Z,0.30
2022-11-06T08:41:59.680Z,0.30
2022-11-06T08:44:04.809Z,0.40
2022-11-06T08:46:09.570Z,0.30
2022-11-06T08:48:17.926Z,0.20
2022-11-06T08:50:20.224Z,0.30
2022-11-06T08:52:23.566Z,0.30
2022-11-06T08:54:28.786Z,0.38
2022-11-06T08:56:32.186Z,0.30
2022-11-06T08:58:34.655Z,0.32
2022-11-06T09:00:38.189Z,0.30
2022-11-06T09:02:41.848Z,0.28
2022-11-06T09:04:45.597Z,0.20
2022-11-06T09:06:48.287Z,0.30
2022-11-06T09:08:50.986Z,0.30
2022-11-06T09:10:58.364Z,0.40
2022-11-06T09:13:02.010Z,0.30
2022-11-06T09:15:05.828Z,0.40
2022-11-06T09:17:08.531Z,0.32
2022-11-06T09:19:11.417Z,0.32
2022-11-06T09:21:14.768Z,0.20
2022-11-06T09:23:17.191Z,0.20
2022-11-06T09:25:20.077Z,0.20
2022-11-06T09:27:22.546Z,0.20
2022-11-06T09:29:25.672Z,0.30
2022-11-06T09:31:28.825Z,0.30
2022-11-06T09:33:31.076Z,0.10
2022-11-06T09:35:34.877Z,0.10
2022-11-06T09:37:37.133Z,0.10
2022-11-06T09:39:42.869Z,0.20
2022-11-06T09:41:56.707Z,0.10
2022-11-06T09:44:10.726Z,0.20
2022-11-06T09:46:25.671Z,0.10
2022-11-06T09:48:36.070Z,0.20
2022-11-06T09:50:52.248Z,0.22
2022-11-06T09:53:06.442Z,0.20
2022-11-06T09:55:24.797Z,0.40
2022-11-06T09:57:39.077Z,0.20
2022-11-06T09:59:41.795Z,0.40
2022-11-06T10:01:50.645Z,0.40
2022-11-06T10:03:58.040Z,0.40
2022-11-06T10:06:00.250Z,0.35
2022-11-06T10:08:05.047Z,0.30
2022-11-06T10:10:15.435Z,0.30
2022-11-06T10:12:31.597Z,0.40
2022-11-06T10:14:52.719Z,0.40
2022-11-06T10:16:54.977Z,0.60
2022-11-06T10:19:12.717Z,0.43
2022-11-06T10:21:27.023Z,0.50
2022-11-06T10:23:49.103Z,0.40
2022-11-06T10:25:58.544Z,0.40
2022-11-06T10:28:04.907Z,0.38
2022-11-06T10:30:14.181Z,0.30
2022-11-06T10:32:21.347Z,0.55
2022-11-06T10:34:30.950Z,0.30
2022-11-06T10:36:50.509Z,0.30
2022-11-06T10:38:54.659Z,0.45
2022-11-06T10:40:56.956Z,0.30
2022-11-06T10:43:14.701Z,0.30
2022-11-06T10:45:23.878Z,0.40
2022-11-06T10:47:37.106Z,0.40
2022-11-06T10:49:46.295Z,0.20
2022-11-06T10:52:03.211Z,0.10
2022-11-06T10:54:16.141Z,0.20
2022-11-06T10:56:21.400Z,0.13
2022-11-06T10:58:34.957Z,0.40
2022-11-06T11:00:37.312Z,0.22
2022-11-06T11:02:46.089Z,0.20
2022-11-06T11:04:48.076Z,0.30
2022-11-06T11:06:50.417Z,0.20
2022-11-06T11:08:52.947Z,0.40
2022-11-06T11:11:05.102Z,0.30
2022-11-06T11:13:21.497Z,0.20
2022-11-06T11:15:25.195Z,0.38
2022-11-06T11:17:27.153Z,0.40
2022-11-06T11:19:41.726Z,0.32
2022-11-06T11:21:55.520Z,0.30
2022-11-06T11:24:09.301Z,1.13
2022-11-06T11:26:17.534Z,0.38
2022-11-06T11:28:31.025Z,0.40
2022-11-06T11:30:33.191Z,0.40
2022-11-06T11:32:35.255Z,0.50
2022-11-06T11:34:50.172Z,0.43
2022-11-06T11:36:58.775Z,0.70
2022-11-06T11:39:01.212Z,0.47
2022-11-06T11:41:17.523Z,0.50
2022-11-06T11:43:33.630Z,0.88
2022-11-06T11:45:37.295Z,0.95
2022-11-06T11:47:42.383Z,0.63
2022-11-06T11:49:44.831Z,0.40
2022-11-06T11:51:48.675Z,0.68
2022-11-06T11:53:51.890Z,1.00
2022-11-06T11:55:54.062Z,0.73
2022-11-06T11:57:59.665Z,1.33
2022-11-06T12:00:06.559Z,0.70
2022-11-06T12:02:33.931Z,0.75
2022-11-06T12:04:41.829Z,1.25
2022-11-06T12:06:54.870Z,0.70
2022-11-06T12:08:57.220Z,1.98
2022-11-06T12:11:08.267Z,1.27
2022-11-06T12:13:14.389Z,1.10
2022-11-06T12:15:19.785Z,1.17
2022-11-06T12:17:24.612Z,1.45
2022-11-06T12:19:32.102Z,0.98
2022-11-06T12:21:37.856Z,1.30
2022-11-06T12:23:51.086Z,1.38
2022-11-06T12:26:05.411Z,1.77
2022-11-06T12:28:15.515Z,0.90
2022-11-06T12:30:19.525Z,1.35
2022-11-06T12:32:27.193Z,2.25
2022-11-06T12:34:44.147Z,1.50
2022-11-06T12:37:01.678Z,1.60
2022-11-06T12:39:13.291Z,1.30
2022-11-06T12:41:27.841Z,2.00
2022-11-06T12:43:38.356Z,1.27
2022-11-06T12:45:51.397Z,1.08
2022-11-06T12:48:07.161Z,1.60
2022-11-06T12:50:17.921Z,1.50
2022-11-06T12:54:51.801Z,1.40
2022-11-06T12:57:10.605Z,1.00
2022-11-06T12:59:32.972Z,1.55
2022-11-06T13:01:53.832Z,2.13
2022-11-06T13:04:07.128Z,1.70
2022-11-06T13:06:19.794Z,1.88
2022-11-06T13:08:38.829Z,1.40
2022-11-06T13:10:44.495Z,1.30
2022-11-06T13:13:02.181Z,2.13
2022-11-06T13:15:07.986Z,0.93
2022-11-06T13:17:25.702Z,1.88
2022-11-06T13:19:47.554Z,1.65
2022-11-06T13:21:55.401Z,1.25
2022-11-06T13:24:07.763Z,1.63
2022-11-06T13:26:22.077Z,1.42
2022-11-06T13:28:32.141Z,2.85
2022-11-06T13:30:37.594Z,1.23
2022-11-06T13:32:42.331Z,1.27
2022-11-06T13:34:48.453Z,1.20
2022-11-06T13:36:51.349Z,1.38
2022-11-06T13:39:00.669Z,1.27
2022-11-06T13:41:08.474Z,0.77
2022-11-06T13:43:11.635Z,1.02
2022-11-06T13:45:17.012Z,0.70
2022-11-06T13:47:29.165Z,0.77
2022-11-06T13:49:37.118Z,1.05
2022-11-06T13:51:48.724Z,1.20
2022-11-06T13:54:04.488Z,1.33
2022-11-06T13:56:16.118Z,0.60
2022-11-06T13:58:41.333Z,0.65
2022-11-06T14:00:52.052Z,0.95
2022-11-06T14:05:23.524Z,0.95
2022-11-06T14:07:31.284Z,0.95
2022-11-06T14:09:36.625Z,0.70
2022-11-06T14:11:43.210Z,0.63
2022-11-06T14:13:57.590Z,0.60
2022-11-06T14:16:02.674Z,0.80
2022-11-06T14:18:05.969Z,0.70
2022-11-06T14:20:30.608Z,0.73
2022-11-06T14:22:37.775Z,0.82
2022-11-06T14:24:41.856Z,0.93
2022-11-06T14:26:48.096Z,0.30
2022-11-06T14:28:50.196Z,0.60
2022-11-06T14:33:33.842Z,0.60
2022-11-06T14:35:36.454Z,0.50
2022-11-06T14:37:49.022Z,0.30
2022-11-06T14:39:53.404Z,0.50
2022-11-06T14:41:58.690Z,0.70
2022-11-06T14:44:11.639Z,0.45
2022-11-06T14:46:24.147Z,0.57
2022-11-06T14:48:28.946Z,0.40
2022-11-06T14:50:41.767Z,0.43
2022-11-06T14:52:48.721Z,0.30
2022-11-06T14:55:00.645Z,0.30
2022-11-06T14:57:05.891Z,0.50
2022-11-06T14:59:20.900Z,0.40
2022-11-06T15:01:32.930Z,0.38
2022-11-06T15:03:38.594Z,0.40
2022-11-06T15:05:42.766Z,0.28
2022-11-06T15:08:04.476Z,0.88
2022-11-06T15:10:36.591Z,0.40
2022-11-06T15:12:57.662Z,0.28
2022-11-06T15:15:07.507Z,0.40
2022-11-06T15:17:15.616Z,0.30
2022-11-06T15:19:23.279Z,0.40
2022-11-06T15:21:35.595Z,1.13
2022-11-06T15:24:03.311Z,0.45
2022-11-06T15:26:15.644Z,0.60
2022-11-06T15:28:23.789Z,0.57
2022-11-06T15:30:28.280Z,0.40
2022-11-06T15:32:37.882Z,0.43
2022-11-06T15:34:58.776Z,0.40
2022-11-06T15:37:10.346Z,0.57
2022-11-06T15:39:24.680Z,0.73
2022-11-06T15:41:28.356Z,0.32
2022-11-06T15:43:34.114Z,0.50
2022-11-06T15:45:37.740Z,0.40
2022-11-06T15:47:40.082Z,0.50
2022-11-06T15:49:42.605Z,0.40
2022-11-06T15:51:56.755Z,0.88
2022-11-06T15:53:58.969Z,0.40
2022-11-06T15:56:06.122Z,0.50
2022-11-06T15:58:18.203Z,0.80
2022-11-06T16:00:25.250Z,0.50
2022-11-06T16:02:27.696Z,0.50
2022-11-06T16:04:31.598Z,0.40
2022-11-06T16:06:34.216Z,0.68
2022-11-06T16:08:38.864Z,0.40
2022-11-06T16:10:44.243Z,0.40
2022-11-06T16:12:51.401Z,0.38
2022-11-06T16:15:13.598Z,0.80
2022-11-06T16:17:25.297Z,0.77
2022-11-06T16:19:31.585Z,0.47
2022-11-06T16:21:38.386Z,0.40
2022-11-06T16:23:43.631Z,0.60
2022-11-06T16:25:47.522Z,0.74
2022-11-06T16:27:52.066Z,0.45
2022-11-06T16:29:57.525Z,1.08
2022-11-06T16:32:04.782Z,0.93
2022-11-06T16:34:19.827Z,0.85
2022-11-06T16:36:22.897Z,1.13
2022-11-06T16:38:46.095Z,0.50
2022-11-06T16:40:51.317Z,0.57
2022-11-06T16:43:03.681Z,0.30
2022-11-06T16:45:17.456Z,0.52
2022-11-06T16:47:22.005Z,0.80
2022-11-06T16:49:33.874Z,0.52
2022-11-06T16:51:36.270Z,0.82
2022-11-06T16:53:51.727Z,0.40
2022-11-06T16:55:58.247Z,0.50
2022-11-06T16:58:02.320Z,1.10
2022-11-06T17:00:21.190Z,1.00
2022-11-06T17:02:26.699Z,1.05
2022-11-06T17:04:30.196Z,0.90
2022-11-06T17:06:36.369Z,0.70
2022-11-06T17:08:41.301Z,0.80
2022-11-06T17:10:45.787Z,0.52
2022-11-06T17:12:47.883Z,0.85
2022-11-06T17:14:50.209Z,1.08
2022-11-06T17:16:58.357Z,0.88
2022-11-06T17:19:03.600Z,1.10
2022-11-06T17:21:12.064Z,1.35
2022-11-06T17:23:16.285Z,1.42
2022-11-06T17:25:18.955Z,2.33
2022-11-06T17:27:21.548Z,1.42
2022-11-06T17:29:23.774Z,0.73
2022-11-06T17:31:27.081Z,0.60
2022-11-06T17:33:29.297Z,0.73
2022-11-06T17:35:31.426Z,0.70
2022-11-06T17:37:33.682Z,0.88
2022-11-06T17:39:35.831Z,1.15
2022-11-06T17:41:38.125Z,1.23
2022-11-06T17:43:40.449Z,0.95
2022-11-06T17:45:45.687Z,0.80
2022-11-06T17:47:48.054Z,0.88
2022-11-06T17:49:50.178Z,0.85
2022-11-06T17:51:58.664Z,0.80
2022-11-06T17:54:02.855Z,2.40
2022-11-06T17:56:07.013Z,3.17
2022-11-06T17:58:09.472Z,2.90
2022-11-06T18:00:13.413Z,3.30
2022-11-06T18:02:29.794Z,3.03
2022-11-06T18:04:39.195Z,2.75
2022-11-06T18:06:41.552Z,2.00
2022-11-06T18:08:44.538Z,1.77
2022-11-06T18:10:54.322Z,1.00
2022-11-06T18:12:56.574Z,1.40
2022-11-06T18:14:58.650Z,1.10
2022-11-06T18:17:01.050Z,1.83
2022-11-06T18:19:07.653Z,1.20
2022-11-06T18:21:11.215Z,1.30
2022-11-06T18:23:14.174Z,1.02
2022-11-06T18:25:16.842Z,1.48
2022-11-06T18:27:19.039Z,1.15
2022-11-06T18:29:21.590Z,1.67
2022-11-06T18:31:23.996Z,1.20
2022-11-06T18:33:26.745Z,1.63
2022-11-06T18:35:29.349Z,1.10
2022-11-06T18:37:31.650Z,1.48
2022-11-06T18:39:35.092Z,0.82
2022-11-06T18:41:38.409Z,1.20
2022-11-06T18:43:41.876Z,1.58
2022-11-06T18:45:44.933Z,0.90
2022-11-06T18:47:50.224Z,1.40
2022-11-06T18:49:52.598Z,1.63
2022-11-06T18:51:55.077Z,1.38
2022-11-06T18:53:59.847Z,0.95
2022-11-06T18:56:02.733Z,1.67
2022-11-06T18:58:05.271Z,1.73
2022-11-06T19:00:08.766Z,1.42
2022-11-06T19:02:11.330Z,1.60
2022-11-06T19:04:14.230Z,2.05
2022-11-06T19:06:19.175Z,2.53
2022-11-06T19:08:21.577Z,3.00
2022-11-06T19:10:24.209Z,2.97
2022-11-06T19:12:26.644Z,2.47
2022-11-06T19:14:28.918Z,3.35
2022-11-06T19:16:31.169Z,3.00
2022-11-06T19:18:36.266Z,3.40
2022-11-06T19:20:41.150Z,2.53
2022-11-06T19:22:43.579Z,2.70
2022-11-06T19:24:45.729Z,2.70
2022-11-06T19:26:48.110Z,2.00
2022-11-06T19:28:51.899Z,4.03
2022-11-06T19:30:54.356Z,3.28
2022-11-06T19:32:56.569Z,3.75
2022-11-06T19:34:58.783Z,3.33
2022-11-06T19:37:02.365Z,2.65
2022-11-06T19:39:05.901Z,2.42
2022-11-06T19:41:08.309Z,2.65
2022-11-06T19:43:10.911Z,2.58
2022-11-06T19:45:13.991Z,3.10
2022-11-06T19:47:16.899Z,3.67
2022-11-06T19:49:19.391Z,3.38
2022-11-06T19:51:21.770Z,4.18
2022-11-06T19:53:25.082Z,4.20
2022-11-06T19:55:27.948Z,3.22
2022-11-06T19:57:30.702Z,3.65
2022-11-06T19:59:32.930Z,4.15
2022-11-06T20:01:35.349Z,3.40
2022-11-06T20:03:37.814Z,3.90
2022-11-06T20:05:41.688Z,4.85
2022-11-06T20:07:44.036Z,4.10
2022-11-06T20:09:46.479Z,3.45
2022-11-06T20:11:50.883Z,2.72
2022-11-06T20:13:53.331Z,3.70
2022-11-06T20:15:59.449Z,2.83
2022-11-06T20:18:02.125Z,3.17
2022-11-06T20:20:05.545Z,2.60
2022-11-06T20:22:07.943Z,2.47
2022-11-06T20:24:11.825Z,3.88
2022-11-06T20:26:19.084Z,3.28
2022-11-06T20:28:22.130Z,2.85
2022-11-06T20:30:24.521Z,2.70
2022-11-06T20:32:26.968Z,2.83
2022-11-06T20:34:29.334Z,2.90
2022-11-06T20:36:32.210Z,2.28
2022-11-06T20:38:34.590Z,2.53
2022-11-06T20:40:36.889Z,2.00
2022-11-06T20:42:39.068Z,1.70
2022-11-06T20:44:41.390Z,2.03
2022-11-06T20:46:47.834Z,1.92
2022-11-06T20:48:51.308Z,2.05
2022-11-06T20:51:06.675Z,2.65
2022-11-06T20:53:09.865Z,2.22
2022-11-06T20:55:12.097Z,2.80
2022-11-06T20:57:15.100Z,2.38
2022-11-06T20:59:18.195Z,2.67
2022-11-06T21:01:24.560Z,2.35
2022-11-06T21:03:28.456Z,2.55
2022-11-06T21:05:30.718Z,2.60
2022-11-06T21:07:33.024Z,1.80
2022-11-06T21:09:35.313Z,2.22
2022-11-06T21:11:37.731Z,1.80
2022-11-06T21:13:42.018Z,2.55
2022-11-06T21:15:45.108Z,1.98
2022-11-06T21:17:47.451Z,2.00
2022-11-06T21:19:50.438Z,2.03
2022-11-06T21:21:56.990Z,1.90
2022-11-06T21:24:01.889Z,2.08
2022-11-06T21:26:07.699Z,1.75
2022-11-06T21:28:10.042Z,1.80
2022-11-06T21:30:12.529Z,2.65
2022-11-06T21:32:15.076Z,2.47
2022-11-06T21:34:19.872Z,2.60
2022-11-06T21:36:25.619Z,2.75
2022-11-06T21:38:27.682Z,2.28
2022-11-06T21:40:29.998Z,1.83
2022-11-06T21:42:35.227Z,1.75
2022-11-06T21:44:37.407Z,2.22
2022-11-06T21:46:44.266Z,1.38
2022-11-06T21:48:48.592Z,1.95
2022-11-06T21:50:51.419Z,2.35
2022-11-06T21:53:03.558Z,1.23
2022-11-06T21:55:16.708Z,2.00
2022-11-06T21:57:19.010Z,2.33
2022-11-06T21:59:26.779Z,1.85
2022-11-06T22:01:31.083Z,1.95
2022-11-06T22:03:34.156Z,1.40
2022-11-06T22:05:36.303Z,1.60
2022-11-06T22:07:38.401Z,2.80
2022-11-06T22:09:40.461Z,1.60
2022-11-06T22:11:44.192Z,1.48
2022-11-06T22:13:48.049Z,1.42
2022-11-06T22:15:50.201Z,2.13
2022-11-06T22:17:52.583Z,2.03
2022-11-06T22:19:54.887Z,1.73
2022-11-06T22:21:56.889Z,1.42
2022-11-06T22:23:58.999Z,1.38
2022-11-06T22:26:03.784Z,2.22
2022-11-06T22:28:05.971Z,1.35
2022-11-06T22:30:09.451Z,1.70
2022-11-06T22:32:11.724Z,1.23
2022-11-06T22:34:14.408Z,2.00
2022-11-06T22:36:17.481Z,1.65
2022-11-06T22:38:19.588Z,1.65
2022-11-06T22:40:21.769Z,1.48
2022-11-06T22:42:23.903Z,1.92
2022-11-06T22:44:26.271Z,1.80
2022-11-06T22:46:28.869Z,1.88
2022-11-06T22:48:32.508Z,2.42
2022-11-06T22:50:35.268Z,2.42
2022-11-06T22:52:37.290Z,1.45
2022-11-06T22:54:39.238Z,2.35
2022-11-06T22:56:41.460Z,2.47
2022-11-06T22:58:44.023Z,1.58
2022-11-06T23:00:50.107Z,1.77
2022-11-06T23:02:52.402Z,2.05
2022-11-06T23:04:54.410Z,2.10
2022-11-06T23:06:56.979Z,1.30
2022-11-06T23:09:00.433Z,1.75
2022-11-06T23:11:09.073Z,1.25
2022-11-06T23:13:11.828Z,2.10
2022-11-06T23:15:15.597Z,1.98
2022-11-06T23:17:19.782Z,1.55
2022-11-06T23:19:23.200Z,3.17
2022-11-06T23:21:25.703Z,1.90
2022-11-06T23:23:28.429Z,1.90
2022-11-06T23:25:31.900Z,2.03
2022-11-06T23:27:34.787Z,1.83
2022-11-06T23:29:38.766Z,1.77
2022-11-06T23:31:41.490Z,1.63
2022-11-06T23:33:43.990Z,1.83
2022-11-06T23:35:45.968Z,2.58
2022-11-06T23:37:48.696Z,2.03
2022-11-06T23:39:55.115Z,1.50
2022-11-06T23:41:57.551Z,1.95
2022-11-06T23:44:01.492Z,2.22
2022-11-06T23:46:04.663Z,2.30
2022-11-06T23:48:14.507Z,1.60
2022-11-06T23:50:17.908Z,2.20
2022-11-06T23:52:20.633Z,2.55
2022-11-06T23:54:23.456Z,2.03
2022-11-06T23:56:25.472Z,1.92
2022-11-06T23:58:27.646Z,3.00
